createdAt,value
2019-02-11T00:03:45.916Z,47.70
2019-02-11T00:17:08.697Z,47.80
2019-02-11T00:44:06.376Z,47.90
2019-02-11T00:57:13.527Z,48.00
2019-02-11T01:10:20.738Z,48.00
2019-02-11T01:23:27.904Z,48.10
2019-02-11T01:36:35.016Z,48.20
2019-02-11T02:02:44.578Z,48.30
2019-02-11T02:15:51.689Z,48.40
2019-02-11T02:28:58.864Z,48.40
2019-02-11T02:42:06.026Z,48.40
2019-02-11T03:08:16.735Z,48.50
2019-02-11T03:21:23.871Z,48.50
2019-02-11T03:34:31.006Z,48.50
2019-02-11T03:47:38.193Z,48.50
2019-02-11T04:00:45.388Z,48.60
2019-02-11T04:13:52.563Z,48.60
2019-02-11T04:27:16.565Z,48.70
2019-02-11T04:40:39.277Z,48.70
2019-02-11T05:07:03.813Z,48.70
2019-02-11T05:20:11.011Z,49.40
2019-02-11T05:33:18.375Z,48.80
2019-02-11T05:46:25.532Z,49.30
2019-02-11T05:59:32.684Z,49.50
2019-02-11T06:12:39.865Z,49.50
2019-02-11T06:26:03.532Z,49.60
2019-02-11T06:39:26.471Z,49.80
2019-02-11T06:52:49.384Z,49.70
2019-02-11T07:06:11.943Z,49.90
2019-02-11T07:19:34.753Z,50.10
2019-02-11T07:45:59.251Z,49.90
2019-02-11T07:59:06.388Z,49.80
2019-02-11T08:12:13.566Z,49.70
2019-02-11T08:25:20.848Z,49.40
2019-02-11T08:38:28.059Z,49.40
2019-02-11T08:51:35.163Z,49.90
2019-02-11T09:04:58.976Z,44.90
2019-02-11T09:18:21.839Z,41.00
2019-02-11T09:31:44.605Z,39.30
2019-02-11T09:45:07.414Z,37.50
2019-02-11T09:58:30.293Z,36.40
2019-02-11T10:11:53.062Z,36.00
2019-02-11T10:25:15.858Z,35.50
2019-02-11T10:38:38.766Z,35.20
2019-02-11T11:05:03.198Z,34.90
2019-02-11T11:18:10.367Z,35.00
2019-02-11T11:31:17.501Z,36.20
2019-02-11T11:44:24.626Z,37.20
2019-02-11T11:57:31.781Z,38.60
2019-02-11T12:10:38.933Z,38.60
2019-02-11T12:24:02.909Z,39.10
2019-02-11T12:37:25.753Z,39.60
2019-02-11T12:50:48.562Z,41.50
2019-02-11T13:04:11.398Z,40.40
2019-02-11T13:17:34.939Z,40.60
2019-02-11T13:30:57.017Z,40.90
2019-02-11T13:44:19.855Z,41.50
2019-02-11T13:57:42.722Z,41.80
2019-02-11T14:11:05.454Z,42.40
2019-02-11T14:24:28.289Z,42.20
2019-02-11T14:37:51.151Z,42.40
2019-02-11T14:51:13.931Z,42.40
2019-02-11T15:04:36.759Z,42.50
2019-02-11T15:17:59.678Z,42.60
2019-02-11T15:31:22.391Z,42.70
2019-02-11T15:44:45.186Z,42.80
2019-02-11T15:58:07.961Z,43.00
2019-02-11T16:11:30.817Z,43.20
2019-02-11T16:24:53.641Z,44.10
2019-02-11T16:38:16.426Z,46.00
2019-02-11T16:51:39.295Z,47.70
2019-02-11T17:05:02.029Z,48.20
2019-02-11T17:18:24.888Z,47.50
2019-02-11T17:31:47.665Z,48.20
2019-02-11T17:58:12.208Z,46.70
2019-02-11T18:11:19.913Z,45.40
2019-02-11T18:24:26.554Z,41.50
2019-02-11T18:37:33.744Z,37.50
2019-02-11T18:50:40.996Z,35.70
2019-02-11T19:03:48.431Z,38.60
2019-02-11T19:17:12.008Z,38.90
2019-02-11T19:30:34.712Z,36.80
2019-02-11T19:56:59.274Z,37.30
2019-02-11T20:10:06.492Z,38.30
2019-02-11T20:23:13.652Z,38.90
2019-02-11T20:49:24.984Z,39.80
2019-02-11T21:02:32.134Z,40.10
2019-02-11T21:15:39.377Z,40.40
2019-02-11T21:28:46.481Z,40.60
2019-02-11T21:41:53.724Z,40.90
2019-02-11T22:08:03.514Z,41.20
2019-02-11T22:21:10.654Z,41.70
2019-02-11T22:34:17.843Z,41.90
2019-02-11T22:47:24.946Z,42.10
2019-02-11T23:00:32.107Z,42.20
2019-02-11T23:13:39.252Z,42.30
2019-02-11T23:27:03.286Z,42.50
2019-02-11T23:40:26.091Z,42.60
2019-02-11T23:53:48.947Z,42.70
